Grudziadz, Poland
Current Conditions -  °F | °C
As of 10:30 AM on Friday 31 Oct 2014 (Local Time) from EPBY Reporting Station
Haze Haze  
Wind Chill: 43°   Ceiling: 200
Heat Index: 43°   Visibility: 1.2mi
Dew Point: 41°   Wind: 2mph
Humidity: 93%   Direction: NA
Pressure: 30.36"   Gusts: NA
Location:  53.49°N, 18.75°E
Report Text: EPBY 310830Z VRB02KT 2000 BR OVC002 06/05 Q1028
Loading
Personal Weather Stations






























Interactive Weather Map
Tropical Storm Tracking
New forecast layout! Learn more

10-Day Weather Forecast

Advertisements
Track Severe Weather on mobile